createdAt,value
2019-04-25T00:00:36.742Z,934.38
2019-04-25T00:01:36.696Z,934.35
2019-04-25T00:02:36.802Z,934.42
2019-04-25T00:03:36.786Z,934.39
2019-04-25T00:04:37.009Z,934.40
2019-04-25T00:05:37.112Z,934.44
2019-04-25T00:06:37.196Z,934.39
2019-04-25T00:07:37.165Z,934.43
2019-04-25T00:08:37.280Z,934.42
2019-04-25T00:09:37.548Z,934.43
2019-04-25T00:10:36.969Z,934.42
2019-04-25T00:11:36.243Z,934.43
2019-04-25T00:12:36.195Z,934.45
2019-04-25T00:13:36.152Z,934.44
2019-04-25T00:14:36.107Z,934.46
2019-04-25T00:15:36.062Z,934.41
2019-04-25T00:16:36.016Z,934.40
2019-04-25T00:17:35.972Z,934.42
2019-04-25T00:18:35.930Z,934.38
2019-04-25T00:19:35.879Z,934.34
2019-04-25T00:20:35.835Z,934.34
2019-04-25T00:21:35.790Z,934.43
2019-04-25T00:22:35.746Z,934.44
2019-04-25T00:23:35.700Z,934.47
2019-04-25T00:24:35.652Z,934.47
2019-04-25T00:25:35.607Z,934.49
2019-04-25T00:26:35.563Z,934.49
2019-04-25T00:27:35.517Z,934.47
2019-04-25T00:28:35.474Z,934.53
2019-04-25T00:29:35.431Z,934.51
2019-04-25T00:30:35.381Z,934.51
2019-04-25T00:31:35.338Z,934.48
2019-04-25T00:32:35.492Z,934.46
2019-04-25T00:33:35.289Z,934.47
2019-04-25T00:34:35.224Z,934.48
2019-04-25T00:35:35.174Z,934.50
2019-04-25T00:36:35.112Z,934.51
2019-04-25T00:37:35.064Z,934.49
2019-04-25T00:38:35.020Z,934.48
2019-04-25T00:39:34.974Z,934.48
2019-04-25T00:40:34.928Z,934.51
2019-04-25T00:41:34.882Z,934.46
2019-04-25T00:42:34.836Z,934.44
2019-04-25T00:43:34.792Z,934.44
2019-04-25T00:44:34.748Z,934.44
2019-04-25T00:45:34.704Z,934.46
2019-04-25T00:46:34.656Z,934.44
2019-04-25T00:47:34.610Z,934.41
2019-04-25T00:48:34.566Z,934.38
2019-04-25T00:49:34.529Z,934.38
2019-04-25T00:50:34.474Z,934.38
2019-04-25T00:51:34.432Z,934.34
2019-04-25T00:52:34.385Z,934.44
2019-04-25T00:53:34.342Z,934.44
2019-04-25T00:54:34.296Z,934.43
2019-04-25T00:55:34.251Z,934.49
2019-04-25T00:56:34.202Z,934.44
2019-04-25T00:57:34.156Z,934.45
2019-04-25T00:58:34.113Z,934.49
2019-04-25T00:59:34.065Z,934.50
2019-04-25T01:00:34.021Z,934.48
2019-04-25T01:01:33.999Z,934.51
2019-04-25T01:02:33.929Z,934.53
2019-04-25T01:03:33.885Z,934.55
2019-04-25T01:04:33.842Z,934.50
2019-04-25T01:05:33.794Z,934.53
2019-04-25T01:06:33.749Z,934.53
2019-04-25T01:07:34.476Z,934.57
2019-04-25T01:08:33.659Z,934.59
2019-04-25T01:09:33.614Z,934.57
2019-04-25T01:10:33.577Z,934.55
2019-04-25T01:11:33.520Z,934.55
2019-04-25T01:12:33.475Z,934.54
2019-04-25T01:13:33.430Z,934.51
2019-04-25T01:14:33.756Z,934.50
2019-04-25T01:15:33.342Z,934.53
2019-04-25T01:16:33.295Z,934.53
2019-04-25T01:17:33.256Z,934.55
2019-04-25T01:18:33.696Z,934.58
2019-04-25T01:19:34.455Z,934.55
2019-04-25T01:20:34.484Z,934.54
2019-04-25T01:21:33.993Z,934.60
2019-04-25T01:22:34.354Z,934.61
2019-04-25T01:23:33.663Z,934.60
2019-04-25T01:24:33.993Z,934.59
2019-04-25T01:25:40.308Z,934.59
2019-04-25T01:26:33.868Z,934.60
2019-04-25T01:27:33.271Z,934.62
2019-04-25T01:28:33.879Z,934.63
2019-04-25T01:29:33.471Z,934.63
2019-04-25T01:30:33.952Z,934.64
2019-04-25T01:31:33.622Z,934.66
2019-04-25T01:32:33.543Z,934.59
2019-04-25T01:33:33.342Z,934.56
2019-04-25T01:34:34.178Z,934.55
2019-04-25T01:35:33.477Z,934.56
2019-04-25T01:36:33.244Z,934.55
2019-04-25T01:37:34.061Z,934.54
2019-04-25T01:38:33.513Z,934.57
2019-04-25T01:39:32.266Z,934.55
2019-04-25T01:40:33.419Z,934.55
2019-04-25T01:41:32.159Z,934.55
2019-04-25T01:42:33.676Z,934.58
2019-04-25T01:43:33.186Z,934.56
2019-04-25T01:44:32.024Z,934.62
2019-04-25T01:45:33.828Z,934.60
2019-04-25T01:46:31.933Z,934.63
2019-04-25T01:47:33.533Z,934.66
2019-04-25T01:48:33.313Z,934.63
2019-04-25T01:49:31.796Z,934.63
2019-04-25T01:50:33.215Z,934.58
2019-04-25T01:51:31.714Z,934.63
2019-04-25T01:52:33.347Z,934.59
2019-04-25T01:53:31.615Z,934.66
2019-04-25T01:54:31.568Z,934.64
2019-04-25T01:55:33.430Z,934.64
2019-04-25T01:56:33.158Z,934.66
2019-04-25T01:57:31.683Z,934.62
2019-04-25T01:58:31.388Z,934.58
2019-04-25T01:59:31.343Z,934.59
2019-04-25T02:00:31.295Z,934.58
2019-04-25T02:01:31.253Z,934.58
2019-04-25T02:02:31.205Z,934.58
2019-04-25T02:03:31.163Z,934.57
2019-04-25T02:04:31.117Z,934.57
2019-04-25T02:05:31.069Z,934.58
2019-04-25T02:06:31.023Z,934.56
2019-04-25T02:07:30.979Z,934.57
2019-04-25T02:08:30.932Z,934.56
2019-04-25T02:09:30.888Z,934.58
2019-04-25T02:10:30.840Z,934.56
2019-04-25T02:11:30.796Z,934.55
2019-04-25T02:12:30.751Z,934.50
2019-04-25T02:13:30.706Z,934.53
2019-04-25T02:14:30.661Z,934.48
2019-04-25T02:15:30.614Z,934.47
2019-04-25T02:16:30.574Z,934.45
2019-04-25T02:17:30.524Z,934.44
2019-04-25T02:18:30.479Z,934.41
2019-04-25T02:19:30.432Z,934.34
2019-04-25T02:20:30.387Z,934.35
2019-04-25T02:21:30.342Z,934.34
2019-04-25T02:22:30.295Z,934.38
2019-04-25T02:23:30.249Z,934.38
2019-04-25T02:24:30.203Z,934.32
2019-04-25T02:25:30.158Z,934.37
2019-04-25T02:26:30.112Z,934.38
2019-04-25T02:27:30.068Z,934.39
2019-04-25T02:28:30.023Z,934.40
2019-04-25T02:29:29.976Z,934.42
2019-04-25T02:30:29.932Z,934.40
2019-04-25T02:31:29.888Z,934.41
2019-04-25T02:32:29.839Z,934.39
2019-04-25T02:33:29.796Z,934.38
2019-04-25T02:34:29.751Z,934.38
2019-04-25T02:35:29.730Z,934.39
2019-04-25T02:36:29.671Z,934.37
2019-04-25T02:37:29.615Z,934.36
2019-04-25T02:38:29.568Z,934.31
2019-04-25T02:39:29.526Z,934.33
2019-04-25T02:40:29.483Z,934.32
2019-04-25T02:41:29.431Z,934.37
2019-04-25T02:42:29.404Z,934.30
2019-04-25T02:43:29.344Z,934.27
2019-04-25T02:44:29.293Z,934.27
2019-04-25T02:45:29.255Z,934.31
2019-04-25T02:46:29.205Z,934.26
2019-04-25T02:47:29.160Z,934.24
2019-04-25T02:48:29.113Z,934.28
2019-04-25T02:49:35.908Z,934.26
2019-04-25T02:50:29.024Z,934.23
2019-04-25T02:51:28.977Z,934.21
2019-04-25T02:52:28.933Z,934.21
2019-04-25T02:53:28.884Z,934.20
2019-04-25T02:54:28.843Z,934.18
2019-04-25T02:55:31.668Z,934.12
2019-04-25T02:56:34.463Z,934.14
2019-04-25T02:57:28.703Z,934.13
2019-04-25T02:58:28.659Z,934.11
2019-04-25T02:59:28.631Z,934.16
2019-04-25T03:00:46.039Z,934.14
2019-04-25T03:01:28.523Z,934.09
2019-04-25T03:02:28.476Z,934.09
2019-04-25T03:03:28.431Z,934.09
2019-04-25T03:04:28.387Z,934.09
2019-04-25T03:05:28.349Z,934.08
2019-04-25T03:06:28.297Z,934.07
2019-04-25T03:07:28.269Z,934.10
2019-04-25T03:08:28.203Z,934.04
2019-04-25T03:09:28.160Z,934.02
2019-04-25T03:10:28.113Z,934.00
2019-04-25T03:11:28.072Z,934.07
2019-04-25T03:12:33.205Z,934.07
2019-04-25T03:13:27.978Z,934.05
2019-04-25T03:14:27.933Z,934.02
2019-04-25T03:15:27.887Z,934.04
2019-04-25T03:16:27.840Z,934.01
2019-04-25T03:17:27.802Z,934.03
2019-04-25T03:18:27.752Z,934.03
2019-04-25T03:19:27.709Z,933.96
2019-04-25T03:20:27.661Z,933.97
2019-04-25T03:21:27.620Z,933.99
2019-04-25T03:22:27.569Z,933.95
2019-04-25T03:23:27.521Z,933.98
2019-04-25T03:24:27.478Z,933.95
2019-04-25T03:25:27.431Z,933.98
2019-04-25T03:26:37.933Z,933.99
2019-04-25T03:27:27.346Z,933.96
2019-04-25T03:28:27.296Z,933.97
2019-04-25T03:29:27.251Z,933.97
2019-04-25T03:30:27.204Z,933.98
2019-04-25T03:31:27.436Z,933.98
2019-04-25T03:32:28.500Z,934.00
2019-04-25T03:33:27.073Z,933.98
2019-04-25T03:34:27.024Z,934.03
2019-04-25T03:35:26.981Z,934.07
2019-04-25T03:36:26.933Z,934.05
2019-04-25T03:37:26.886Z,934.06
2019-04-25T03:38:26.838Z,934.08
2019-04-25T03:39:27.082Z,934.08
2019-04-25T03:40:26.748Z,934.05
2019-04-25T03:41:26.702Z,934.00
2019-04-25T03:42:26.659Z,934.03
2019-04-25T03:43:26.612Z,934.04
2019-04-25T03:44:26.569Z,934.04
2019-04-25T03:45:26.518Z,934.02
2019-04-25T03:46:26.474Z,934.01
2019-04-25T03:47:26.429Z,934.03
2019-04-25T03:48:26.382Z,934.04
2019-04-25T03:49:26.338Z,934.02
2019-04-25T03:50:26.292Z,933.97
2019-04-25T03:51:26.247Z,933.99
2019-04-25T03:52:26.201Z,933.99
2019-04-25T03:53:26.157Z,934.02
2019-04-25T03:54:26.117Z,934.04
2019-04-25T03:55:26.064Z,934.02
2019-04-25T03:56:26.019Z,934.03
2019-04-25T03:57:25.973Z,934.04
2019-04-25T03:58:25.927Z,934.03
2019-04-25T03:59:25.883Z,934.04
2019-04-25T04:00:25.843Z,934.01
2019-04-25T04:01:25.791Z,934.05
2019-04-25T04:02:25.745Z,934.01
2019-04-25T04:03:25.701Z,934.02
2019-04-25T04:04:25.652Z,933.95
2019-04-25T04:05:25.608Z,933.96
2019-04-25T04:06:25.563Z,933.95
2019-04-25T04:07:25.517Z,933.93
2019-04-25T04:08:25.473Z,933.93
2019-04-25T04:09:25.432Z,933.92
2019-04-25T04:10:25.385Z,933.91
2019-04-25T04:11:25.340Z,933.91
2019-04-25T04:12:25.290Z,933.86
2019-04-25T04:13:25.246Z,933.87
2019-04-25T04:14:25.199Z,933.84
2019-04-25T04:15:25.232Z,933.89
2019-04-25T04:16:25.108Z,933.88
2019-04-25T04:17:25.062Z,933.87
2019-04-25T04:18:26.914Z,933.84
2019-04-25T04:19:24.998Z,933.86
2019-04-25T04:20:24.927Z,933.85
2019-04-25T04:21:24.881Z,933.86
2019-04-25T04:22:24.836Z,933.82
2019-04-25T04:23:24.789Z,933.82
2019-04-25T04:24:25.889Z,933.87
2019-04-25T04:25:24.699Z,933.81
2019-04-25T04:26:24.652Z,933.82
2019-04-25T04:27:24.608Z,933.82
2019-04-25T04:28:24.564Z,933.79
2019-04-25T04:29:25.548Z,933.85
2019-04-25T04:30:24.469Z,933.86
2019-04-25T04:31:24.426Z,933.87
2019-04-25T04:32:24.378Z,933.85
2019-04-25T04:33:31.762Z,933.87
2019-04-25T04:34:24.288Z,933.83
2019-04-25T04:35:24.243Z,933.84
2019-04-25T04:36:24.197Z,933.84
2019-04-25T04:37:24.154Z,933.83
2019-04-25T04:38:24.138Z,933.83
2019-04-25T04:39:24.060Z,933.82
2019-04-25T04:40:24.377Z,933.81
2019-04-25T04:41:24.041Z,933.82
2019-04-25T04:42:23.925Z,933.78
2019-04-25T04:43:25.491Z,933.78
2019-04-25T04:44:24.174Z,933.80
2019-04-25T04:45:23.793Z,933.76
2019-04-25T04:46:24.139Z,933.75
2019-04-25T04:47:23.765Z,933.77
2019-04-25T04:48:23.653Z,933.78
2019-04-25T04:49:23.877Z,933.75
2019-04-25T04:50:25.271Z,933.77
2019-04-25T04:51:23.533Z,933.78
2019-04-25T04:52:25.599Z,933.80
2019-04-25T04:53:23.527Z,933.80
2019-04-25T04:54:23.380Z,933.79
2019-04-25T04:55:23.341Z,933.77
2019-04-25T04:56:23.892Z,933.79
2019-04-25T04:57:31.911Z,933.73
2019-04-25T04:58:24.977Z,933.74
2019-04-25T04:59:24.684Z,933.69
2019-04-25T05:00:24.543Z,933.66
2019-04-25T05:01:24.625Z,933.65
2019-04-25T05:02:24.188Z,933.63
2019-04-25T05:03:24.041Z,933.64
2019-04-25T05:04:25.074Z,933.64
2019-04-25T05:05:24.412Z,933.64
2019-04-25T05:06:24.007Z,933.66
2019-04-25T05:07:23.723Z,933.70
2019-04-25T05:08:24.806Z,933.66
2019-04-25T05:09:23.844Z,933.67
2019-04-25T05:10:23.683Z,933.65
2019-04-25T05:11:25.161Z,933.63
2019-04-25T05:12:24.051Z,933.62
2019-04-25T05:13:24.156Z,933.63
2019-04-25T05:14:23.879Z,933.68
2019-04-25T05:15:24.566Z,933.66
2019-04-25T05:16:23.800Z,933.65
2019-04-25T05:17:23.711Z,933.66
2019-04-25T05:18:36.590Z,933.63
2019-04-25T05:19:23.779Z,933.59
2019-04-25T05:20:22.260Z,933.54
2019-04-25T05:21:22.604Z,933.54
2019-04-25T05:22:23.923Z,933.50
2019-04-25T05:23:23.014Z,933.53
2019-04-25T05:24:24.476Z,933.53
2019-04-25T05:25:24.526Z,933.56
2019-04-25T05:26:21.927Z,933.56
2019-04-25T05:27:35.779Z,933.56
2019-04-25T05:28:23.741Z,933.55
2019-04-25T05:29:23.486Z,933.52
2019-04-25T05:30:23.959Z,933.48
2019-04-25T05:31:21.701Z,933.48
2019-04-25T05:32:21.655Z,933.43
2019-04-25T05:33:22.730Z,933.41
2019-04-25T05:34:21.772Z,933.43
2019-04-25T05:35:22.461Z,933.45
2019-04-25T05:36:21.830Z,933.43
2019-04-25T05:37:21.868Z,933.44
2019-04-25T05:38:22.638Z,933.48
2019-04-25T05:39:22.319Z,933.50
2019-04-25T05:40:22.111Z,933.47
2019-04-25T05:41:21.245Z,933.48
2019-04-25T05:42:21.199Z,933.49
2019-04-25T05:43:21.156Z,933.47
2019-04-25T05:44:21.110Z,933.45
2019-04-25T05:45:21.288Z,933.48
2019-04-25T05:46:21.102Z,933.49
2019-04-25T05:47:22.596Z,933.47
2019-04-25T05:48:21.161Z,933.47
2019-04-25T05:49:21.317Z,933.48
2019-04-25T05:50:20.838Z,933.47
2019-04-25T05:51:21.595Z,933.44
2019-04-25T05:52:20.747Z,933.44
2019-04-25T05:53:20.701Z,933.42
2019-04-25T05:54:20.655Z,933.35
2019-04-25T05:55:21.127Z,933.37
2019-04-25T05:56:20.565Z,933.35
2019-04-25T05:57:20.519Z,933.34
2019-04-25T05:58:20.519Z,933.34
2019-04-25T05:59:20.431Z,933.35
2019-04-25T06:00:20.717Z,933.32
2019-04-25T06:01:20.766Z,933.34
2019-04-25T06:02:20.292Z,933.32
2019-04-25T06:03:20.819Z,933.30
2019-04-25T06:04:21.011Z,933.29
2019-04-25T06:05:21.105Z,933.33
2019-04-25T06:06:20.869Z,933.30
2019-04-25T06:07:20.063Z,933.32
2019-04-25T06:08:20.019Z,933.30
2019-04-25T06:09:19.972Z,933.33
2019-04-25T06:10:19.928Z,933.33
2019-04-25T06:11:19.882Z,933.31
2019-04-25T06:12:19.887Z,933.31
2019-04-25T06:13:19.791Z,933.30
2019-04-25T06:14:19.952Z,933.29
2019-04-25T06:15:24.993Z,933.27
2019-04-25T06:16:20.199Z,933.24
2019-04-25T06:17:20.105Z,933.27
2019-04-25T06:18:19.894Z,933.24
2019-04-25T06:19:20.814Z,933.22
2019-04-25T06:20:20.121Z,933.23
2019-04-25T06:21:20.020Z,933.24
2019-04-25T06:22:19.973Z,933.23
2019-04-25T06:23:19.337Z,933.25
2019-04-25T06:24:19.294Z,933.21
2019-04-25T06:25:21.119Z,933.23
2019-04-25T06:26:30.816Z,933.23
2019-04-25T06:27:19.709Z,933.18
2019-04-25T06:28:19.423Z,933.19
2019-04-25T06:29:20.353Z,933.14
2019-04-25T06:30:20.376Z,933.16
2019-04-25T06:31:19.896Z,933.13
2019-04-25T06:32:18.926Z,933.12
2019-04-25T06:33:18.923Z,933.12
2019-04-25T06:34:19.835Z,933.11
2019-04-25T06:35:18.790Z,933.09
2019-04-25T06:36:18.748Z,933.07
2019-04-25T06:37:18.701Z,933.05
2019-04-25T06:38:18.652Z,933.04
2019-04-25T06:39:18.610Z,933.05
2019-04-25T06:40:18.564Z,933.02
2019-04-25T06:41:18.518Z,932.99
2019-04-25T06:42:18.471Z,932.99
2019-04-25T06:43:18.425Z,932.96
2019-04-25T06:44:18.379Z,932.97
2019-04-25T06:45:18.334Z,932.96
2019-04-25T06:46:18.289Z,932.95
2019-04-25T06:47:18.243Z,932.90
2019-04-25T06:48:18.198Z,932.96
2019-04-25T06:49:18.150Z,932.94
2019-04-25T06:50:18.107Z,932.95
2019-04-25T06:51:18.063Z,932.95
2019-04-25T06:52:18.015Z,932.95
2019-04-25T06:53:17.969Z,932.94
2019-04-25T06:54:17.924Z,932.92
2019-04-25T06:55:17.878Z,932.93
2019-04-25T06:56:17.835Z,932.87
2019-04-25T06:57:17.788Z,932.86
2019-04-25T06:58:17.744Z,932.87
2019-04-25T06:59:17.696Z,932.87
2019-04-25T07:00:17.650Z,932.87
2019-04-25T07:01:17.604Z,932.89
2019-04-25T07:02:17.560Z,932.87
2019-04-25T07:03:17.515Z,932.87
2019-04-25T07:04:17.469Z,932.87
2019-04-25T07:05:26.678Z,932.89
2019-04-25T07:06:17.376Z,932.88
2019-04-25T07:07:17.332Z,932.84
2019-04-25T07:08:17.285Z,932.85
2019-04-25T07:09:17.243Z,932.85
2019-04-25T07:10:17.193Z,932.84
2019-04-25T07:11:17.148Z,932.83
2019-04-25T07:12:17.104Z,932.84
2019-04-25T07:13:17.056Z,932.81
2019-04-25T07:14:17.012Z,932.77
2019-04-25T07:15:16.966Z,932.75
2019-04-25T07:16:16.924Z,932.75
2019-04-25T07:17:16.876Z,932.74
2019-04-25T07:18:16.830Z,932.75
2019-04-25T07:19:17.636Z,932.75
2019-04-25T07:20:16.740Z,932.70
2019-04-25T07:21:16.699Z,932.69
2019-04-25T07:22:16.647Z,932.67
2019-04-25T07:23:16.603Z,932.67
2019-04-25T07:24:17.603Z,932.68
2019-04-25T07:25:16.510Z,932.66
2019-04-25T07:26:16.463Z,932.63
2019-04-25T07:27:16.418Z,932.56
2019-04-25T07:28:23.527Z,932.55
2019-04-25T07:29:16.328Z,932.56
2019-04-25T07:30:26.877Z,932.53
2019-04-25T07:31:16.239Z,932.55
2019-04-25T07:32:16.193Z,932.53
2019-04-25T07:33:16.146Z,932.56
2019-04-25T07:34:16.112Z,932.55
2019-04-25T07:35:16.054Z,932.60
2019-04-25T07:36:16.009Z,932.63
2019-04-25T07:37:15.962Z,932.63
2019-04-25T07:38:15.916Z,932.66
2019-04-25T07:39:15.872Z,932.68
2019-04-25T07:40:15.827Z,932.68
2019-04-25T07:41:16.380Z,932.71
2019-04-25T07:42:15.735Z,932.72
2019-04-25T07:43:15.689Z,932.71
2019-04-25T07:44:15.673Z,932.70
2019-04-25T07:45:15.643Z,932.70
2019-04-25T07:46:15.551Z,932.74
2019-04-25T07:47:15.892Z,932.72
2019-04-25T07:48:15.461Z,932.71
2019-04-25T07:49:15.414Z,932.69
2019-04-25T07:50:15.439Z,932.64
2019-04-25T07:51:16.553Z,932.72
2019-04-25T07:52:15.283Z,932.68
2019-04-25T07:53:15.232Z,932.69
2019-04-25T07:54:15.185Z,932.70
2019-04-25T07:55:15.145Z,932.73
2019-04-25T07:56:15.097Z,932.72
2019-04-25T07:57:15.052Z,932.70
2019-04-25T07:58:15.002Z,932.74
2019-04-25T07:59:14.958Z,932.75
2019-04-25T08:00:14.910Z,932.69
2019-04-25T08:01:14.865Z,932.74
2019-04-25T08:02:14.820Z,932.76
2019-04-25T08:03:15.460Z,932.76
2019-04-25T08:04:14.728Z,932.77
2019-04-25T08:05:14.684Z,932.80
2019-04-25T08:06:14.638Z,932.81
2019-04-25T08:07:14.594Z,932.78
2019-04-25T08:08:14.544Z,932.80
2019-04-25T08:09:15.747Z,932.80
2019-04-25T08:10:14.452Z,932.79
2019-04-25T08:11:14.407Z,932.79
2019-04-25T08:12:14.367Z,932.78
2019-04-25T08:13:14.321Z,932.78
2019-04-25T08:14:14.457Z,932.76
2019-04-25T08:15:14.225Z,932.76
2019-04-25T08:16:14.642Z,932.72
2019-04-25T08:17:14.520Z,932.76
2019-04-25T08:18:14.089Z,932.65
2019-04-25T08:19:14.042Z,932.68
2019-04-25T08:20:15.222Z,932.66
2019-04-25T08:21:15.348Z,932.68
2019-04-25T08:22:13.906Z,932.65
2019-04-25T08:23:13.933Z,932.69
2019-04-25T08:24:14.015Z,932.68
2019-04-25T08:25:13.892Z,932.67
2019-04-25T08:26:14.284Z,932.71
2019-04-25T08:27:13.675Z,932.69
2019-04-25T08:28:13.833Z,932.70
2019-04-25T08:29:13.584Z,932.72
2019-04-25T08:30:13.999Z,932.69
2019-04-25T08:31:13.663Z,932.73
2019-04-25T08:32:14.224Z,932.75
2019-04-25T08:33:13.880Z,932.75
2019-04-25T08:34:14.547Z,932.71
2019-04-25T08:35:13.887Z,932.78
2019-04-25T08:36:13.746Z,932.76
2019-04-25T08:37:18.952Z,932.76
2019-04-25T08:38:13.790Z,932.75
2019-04-25T08:39:14.544Z,932.80
2019-04-25T08:40:13.693Z,932.77
2019-04-25T08:41:14.071Z,932.78
2019-04-25T08:42:14.635Z,932.80
2019-04-25T08:43:14.569Z,932.79
2019-04-25T08:44:14.183Z,932.82
2019-04-25T08:45:13.340Z,932.82
2019-04-25T08:46:13.994Z,932.84
2019-04-25T08:47:14.464Z,932.90
2019-04-25T08:48:13.591Z,932.88
2019-04-25T08:49:14.070Z,932.90
2019-04-25T08:50:26.378Z,932.99
2019-04-25T08:51:13.491Z,932.92
2019-04-25T08:52:13.224Z,932.91
2019-04-25T08:53:13.687Z,932.90
2019-04-25T08:54:13.638Z,932.91
2019-04-25T08:55:14.113Z,932.89
2019-04-25T08:56:13.353Z,932.92
2019-04-25T08:57:13.835Z,932.95
2019-04-25T08:58:13.724Z,932.90
2019-04-25T08:59:12.213Z,932.94
2019-04-25T09:00:12.164Z,933.02
2019-04-25T09:01:13.676Z,933.03
2019-04-25T09:02:13.587Z,933.01
2019-04-25T09:03:12.026Z,933.07
2019-04-25T09:04:13.335Z,933.05
2019-04-25T09:05:14.396Z,933.09
2019-04-25T09:06:13.289Z,933.10
2019-04-25T09:07:13.483Z,933.09
2019-04-25T09:08:11.798Z,933.12
2019-04-25T09:09:11.750Z,933.10
2019-04-25T09:10:11.707Z,933.11
2019-04-25T09:11:13.230Z,933.16
2019-04-25T09:12:11.613Z,933.20
2019-04-25T09:13:13.015Z,933.21
2019-04-25T09:14:11.529Z,933.24
2019-04-25T09:15:11.476Z,933.21
2019-04-25T09:16:11.433Z,933.26
2019-04-25T09:17:11.385Z,933.25
2019-04-25T09:18:11.341Z,933.29
2019-04-25T09:19:11.292Z,933.29
2019-04-25T09:20:11.252Z,933.30
2019-04-25T09:21:11.201Z,933.33
2019-04-25T09:22:11.157Z,933.38
2019-04-25T09:23:11.108Z,933.36
2019-04-25T09:24:11.063Z,933.39
2019-04-25T09:25:11.017Z,933.42
2019-04-25T09:26:10.974Z,933.37
2019-04-25T09:27:10.927Z,933.42
2019-04-25T09:28:10.881Z,933.39
2019-04-25T09:29:18.712Z,933.42
2019-04-25T09:30:10.790Z,933.45
2019-04-25T09:31:10.743Z,933.39
2019-04-25T09:32:10.699Z,933.41
2019-04-25T09:33:10.650Z,933.42
2019-04-25T09:34:10.658Z,933.39
2019-04-25T09:35:10.576Z,933.44
2019-04-25T09:36:10.513Z,933.44
2019-04-25T09:37:10.468Z,933.46
2019-04-25T09:38:10.425Z,933.44
2019-04-25T09:39:10.377Z,933.49
2019-04-25T09:40:10.330Z,933.53
2019-04-25T09:41:10.289Z,933.51
2019-04-25T09:42:10.240Z,933.51
2019-04-25T09:43:10.197Z,933.50
2019-04-25T09:44:10.148Z,933.47
2019-04-25T09:45:10.104Z,933.45
2019-04-25T09:46:10.069Z,933.44
2019-04-25T09:47:10.011Z,933.47
2019-04-25T09:48:09.965Z,933.50
2019-04-25T09:49:09.920Z,933.55
2019-04-25T09:50:09.884Z,933.46
2019-04-25T09:51:09.831Z,933.49
2019-04-25T09:52:09.788Z,933.53
2019-04-25T09:53:21.004Z,933.53
2019-04-25T09:54:09.692Z,933.53
2019-04-25T09:55:09.645Z,933.56
2019-04-25T09:56:09.600Z,933.55
2019-04-25T09:57:09.554Z,933.59
2019-04-25T09:58:09.507Z,933.58
2019-04-25T09:59:09.477Z,933.60
2019-04-25T10:00:09.420Z,933.62
2019-04-25T10:01:09.372Z,933.66
2019-04-25T10:02:09.348Z,933.65
2019-04-25T10:03:09.280Z,933.68
2019-04-25T10:04:09.235Z,933.68
2019-04-25T10:05:09.187Z,933.64
2019-04-25T10:06:09.142Z,933.70
2019-04-25T10:07:09.097Z,933.70
2019-04-25T10:08:09.050Z,933.69
2019-04-25T10:09:09.005Z,933.73
2019-04-25T10:10:08.959Z,933.74
2019-04-25T10:11:08.914Z,933.69
2019-04-25T10:12:08.869Z,933.76
2019-04-25T10:13:08.823Z,933.73
2019-04-25T10:14:08.776Z,933.75
2019-04-25T10:15:08.730Z,933.72
2019-04-25T10:16:08.687Z,933.79
2019-04-25T10:17:08.639Z,933.74
2019-04-25T10:18:08.608Z,933.77
2019-04-25T10:19:08.548Z,933.74
2019-04-25T10:20:08.505Z,933.77
2019-04-25T10:21:08.460Z,933.75
2019-04-25T10:22:08.411Z,933.71
2019-04-25T10:23:08.363Z,933.76
2019-04-25T10:24:08.521Z,933.73
2019-04-25T10:25:08.784Z,933.78
2019-04-25T10:26:08.229Z,933.80
2019-04-25T10:27:08.181Z,933.80
2019-04-25T10:28:08.144Z,933.81
2019-04-25T10:29:08.095Z,933.82
2019-04-25T10:30:16.989Z,933.83
2019-04-25T10:31:07.999Z,933.85
2019-04-25T10:32:07.958Z,933.82
2019-04-25T10:33:07.909Z,933.84
2019-04-25T10:34:07.864Z,933.84
2019-04-25T10:35:07.815Z,933.91
2019-04-25T10:36:07.771Z,933.90
2019-04-25T10:37:07.726Z,933.91
2019-04-25T10:38:07.678Z,933.90
2019-04-25T10:39:10.796Z,933.89
2019-04-25T10:40:07.592Z,933.94
2019-04-25T10:41:07.543Z,933.95
2019-04-25T10:42:07.497Z,933.97
2019-04-25T10:43:07.451Z,934.02
2019-04-25T10:44:07.407Z,934.00
2019-04-25T10:45:20.217Z,933.99
2019-04-25T10:46:07.326Z,934.02
2019-04-25T10:47:07.268Z,933.98
2019-04-25T10:48:07.225Z,933.99
2019-04-25T10:49:07.179Z,934.05
2019-04-25T10:50:07.135Z,934.10
2019-04-25T10:51:07.087Z,934.06
2019-04-25T10:52:07.047Z,934.07
2019-04-25T10:53:07.000Z,934.08
2019-04-25T10:54:06.956Z,934.09
2019-04-25T10:55:11.022Z,934.06
2019-04-25T10:56:06.863Z,934.09
2019-04-25T10:57:06.820Z,934.06
2019-04-25T10:58:06.775Z,934.07
2019-04-25T10:59:06.728Z,934.14
2019-04-25T11:00:09.463Z,934.07
2019-04-25T11:01:06.638Z,934.05
2019-04-25T11:02:06.599Z,934.09
2019-04-25T11:03:06.551Z,934.08
2019-04-25T11:04:06.506Z,934.10
2019-04-25T11:05:06.980Z,934.11
2019-04-25T11:06:06.417Z,934.09
2019-04-25T11:07:06.372Z,934.11
2019-04-25T11:08:06.329Z,934.17
2019-04-25T11:09:06.292Z,934.11
2019-04-25T11:10:06.237Z,934.12
2019-04-25T11:11:06.201Z,934.14
2019-04-25T11:12:06.150Z,934.19
2019-04-25T11:13:06.111Z,934.21
2019-04-25T11:14:07.527Z,934.19
2019-04-25T11:15:06.029Z,934.19
2019-04-25T11:16:05.976Z,934.19
2019-04-25T11:17:05.943Z,934.21
2019-04-25T11:18:05.890Z,934.22
2019-04-25T11:19:05.851Z,934.27
2019-04-25T11:20:05.796Z,934.27
2019-04-25T11:21:06.035Z,934.31
2019-04-25T11:22:05.709Z,934.35
2019-04-25T11:23:05.662Z,934.34
2019-04-25T11:24:05.623Z,934.33
2019-04-25T11:25:05.677Z,934.35
2019-04-25T11:26:05.530Z,934.35
2019-04-25T11:27:05.488Z,934.35
2019-04-25T11:28:05.545Z,934.33
2019-04-25T11:29:05.400Z,934.38
2019-04-25T11:30:11.167Z,934.42
2019-04-25T11:31:05.344Z,934.42
2019-04-25T11:32:05.269Z,934.43
2019-04-25T11:33:05.225Z,934.43
2019-04-25T11:34:05.183Z,934.48
2019-04-25T11:35:05.191Z,934.47
2019-04-25T11:36:05.091Z,934.53
2019-04-25T11:37:05.857Z,934.47
2019-04-25T11:38:05.585Z,934.51
2019-04-25T11:39:04.968Z,934.53
2019-04-25T11:40:04.977Z,934.56
2019-04-25T11:41:04.870Z,934.58
2019-04-25T11:42:04.832Z,934.51
2019-04-25T11:43:04.781Z,934.52
2019-04-25T11:44:04.736Z,934.50
2019-04-25T11:45:05.931Z,934.55
2019-04-25T11:46:05.168Z,934.50
2019-04-25T11:47:06.910Z,934.54
2019-04-25T11:48:05.323Z,934.58
2019-04-25T11:49:04.545Z,934.56
2019-04-25T11:50:04.492Z,934.56
2019-04-25T11:51:04.429Z,934.50
2019-04-25T11:52:05.308Z,934.51
2019-04-25T11:53:04.831Z,934.50
2019-04-25T11:54:04.299Z,934.54
2019-04-25T11:55:04.393Z,934.60
2019-04-25T11:56:04.209Z,934.58
2019-04-25T11:57:04.168Z,934.61
2019-04-25T11:58:04.127Z,934.61
2019-04-25T11:59:04.564Z,934.63
2019-04-25T12:00:04.345Z,934.60
2019-04-25T12:01:05.123Z,934.57
2019-04-25T12:02:04.666Z,934.57
2019-04-25T12:03:03.905Z,934.59
2019-04-25T12:04:04.133Z,934.60
2019-04-25T12:05:03.817Z,934.58
2019-04-25T12:06:03.777Z,934.55
2019-04-25T12:07:06.571Z,934.55
2019-04-25T12:08:04.121Z,934.56
2019-04-25T12:09:04.122Z,934.58
2019-04-25T12:10:03.797Z,934.61
2019-04-25T12:11:03.566Z,934.59
2019-04-25T12:12:05.573Z,934.62
2019-04-25T12:13:04.297Z,934.64
2019-04-25T12:14:04.328Z,934.63
2019-04-25T12:15:04.430Z,934.61
2019-04-25T12:16:04.117Z,934.61
2019-04-25T12:17:03.775Z,934.63
2019-04-25T12:18:04.695Z,934.69
2019-04-25T12:19:04.736Z,934.73
2019-04-25T12:20:03.868Z,934.76
2019-04-25T12:21:04.245Z,934.75
2019-04-25T12:22:04.028Z,934.78
2019-04-25T12:23:08.060Z,934.79
2019-04-25T12:24:05.459Z,934.77
2019-04-25T12:25:04.518Z,934.77
2019-04-25T12:26:03.850Z,934.83
2019-04-25T12:27:04.274Z,934.79
2019-04-25T12:28:04.330Z,934.77